Time;durP1;ratioP1;P1;durP2;ratioP2;P2;SDS_P1;SDS_P2;PMS_P1;PMS_P2;Temp;Humidity;BMP_temperature;BMP_pressure;BME280_temperature;BME280_humidity;BME280_pressure;Samples;Min_cycle;Max_cycle;Signal;HPM_P1;HPM_P2
2022/08/19 00:01:49;;;;;;;23.53;14.53;;;;;;;20.85;96.31;99978.12;124705;1099;104170;-76
2022/08/19 00:04:22;;;;;;;25.80;15.83;;;;;;;20.84;96.18;99973.67;124699;1099;104265;-76
2022/08/19 00:06:54;;;;;;;24.15;14.95;;;;;;;20.83;97.16;99978.14;124745;1099;104249;-78
2022/08/19 00:09:26;;;;;;;25.77;15.60;;;;;;;20.84;96.60;99979.01;124183;1102;102317;-76
2022/08/19 00:11:59;;;;;;;27.53;15.73;;;;;;;20.83;96.92;99977.23;124214;1099;104323;-76
2022/08/19 00:14:32;;;;;;;24.40;15.17;;;;;;;20.81;96.41;99969.25;124250;1099;104195;-77
2022/08/19 00:17:05;;;;;;;27.73;14.97;;;;;;;20.81;96.95;99963.05;124238;1099;101930;-77
2022/08/19 00:19:40;;;;;;;24.63;15.57;;;;;;;20.83;96.77;99974.56;124643;1099;102274;-78
2022/08/19 00:22:11;;;;;;;25.37;15.07;;;;;;;20.82;96.35;99975.49;124718;1099;102885;-76
2022/08/19 00:24:43;;;;;;;24.73;14.67;;;;;;;20.81;96.44;99979.92;124728;1099;102306;-77
2022/08/19 00:27:15;;;;;;;23.17;14.80;;;;;;;20.81;96.27;99979.92;124708;1099;104290;-77
2022/08/19 00:29:46;;;;;;;27.13;15.57;;;;;;;20.82;97.08;99980.83;124288;1099;104163;-77
2022/08/19 00:32:17;;;;;;;22.13;14.93;;;;;;;20.81;97.13;99974.59;124292;1099;102744;-77
2022/08/19 00:34:50;;;;;;;23.50;15.37;;;;;;;20.80;96.89;99978.18;124321;1099;102171;-77
2022/08/19 00:37:26;;;;;;;24.15;15.25;;;;;;;20.80;96.83;99978.18;124186;1099;104213;-77
2022/08/19 00:39:57;;;;;;;29.73;14.77;;;;;;;20.80;97.25;99979.94;124228;1099;104159;-77
2022/08/19 00:42:32;;;;;;;24.33;14.47;;;;;;;20.80;96.63;99988.84;124272;1099;104261;-77
2022/08/19 00:45:09;;;;;;;23.83;15.17;;;;;;;20.80;97.14;99982.61;124743;1099;104239;-77
2022/08/19 00:47:41;;;;;;;24.37;14.97;;;;;;;20.79;97.11;99992.41;124704;1099;102870;-78
2022/08/19 00:50:16;;;;;;;27.10;14.30;;;;;;;20.77;97.45;99986.22;124241;1099;104201;-77
2022/08/19 00:52:50;;;;;;;25.00;14.30;;;;;;;20.76;96.54;99987.11;124228;1099;104176;-77
2022/08/19 00:55:24;;;;;;;25.57;14.70;;;;;;;20.75;96.39;99980.02;124220;1099;104227;-77
2022/08/19 00:57:59;;;;;;;23.27;13.97;;;;;;;20.74;97.29;99980.94;124252;1099;104239;-76
2022/08/19 01:00:36;;;;;;;24.13;14.60;;;;;;;20.75;98.03;99979.14;124261;1100;119048;-77
2022/08/19 01:03:09;;;;;;;23.33;13.80;;;;;;;20.67;97.40;99979.25;124687;1099;104169;-77
2022/08/19 01:05:43;;;;;;;23.02;14.28;;;;;;;20.71;97.82;99988.98;124720;1099;104261;-76
2022/08/19 01:08:18;;;;;;;29.93;14.90;;;;;;;20.70;97.92;99987.20;124672;1098;104163;-76
2022/08/19 01:10:53;;;;;;;25.80;15.20;;;;;;;20.69;97.15;99981.89;124191;1099;102814;-76
2022/08/19 01:13:27;;;;;;;24.83;15.03;;;;;;;20.67;97.57;99981.05;124264;1099;102165;-76
2022/08/19 01:16:04;;;;;;;23.23;15.37;;;;;;;20.65;97.57;99989.93;124130;1099;104176;-77
2022/08/19 01:18:41;;;;;;;23.43;14.60;;;;;;;20.63;97.35;99981.05;124180;1099;102172;-77
2022/08/19 01:21:19;;;;;;;23.47;14.87;;;;;;;20.63;97.49;99975.72;124658;1099;109374;-77
2022/08/19 01:23:51;;;;;;;26.73;14.80;;;;;;;20.62;97.66;99973.08;124670;1099;104624;-77
2022/08/19 01:26:25;;;;;;;23.27;13.97;;;;;;;20.60;98.47;99980.19;125571;1098;103282;-77
2022/08/19 01:29:00;;;;;;;26.03;15.30;;;;;;;20.58;97.86;99980.20;124726;1099;102766;-77
2022/08/19 01:31:32;;;;;;;25.17;15.00;;;;;;;20.56;97.78;99981.16;124230;1099;104242;-77
2022/08/19 01:34:06;;;;;;;24.87;14.67;;;;;;;20.55;97.62;99982.05;124216;1099;104262;-78
2022/08/19 01:36:45;;;;;;;25.13;14.43;;;;;;;20.53;98.39;99984.73;124287;1099;102281;-77
2022/08/19 01:39:21;;;;;;;26.57;14.80;;;;;;;20.51;97.76;99983.02;124983;1099;102899;-77
2022/08/19 01:41:55;;;;;;;22.73;13.87;;;;;;;20.48;98.55;99982.12;124614;1099;107970;-78
2022/08/19 01:44:27;;;;;;;23.70;13.30;;;;;;;20.48;97.63;99975.92;124749;1099;104248;-77
2022/08/19 01:46:59;;;;;;;23.27;15.07;;;;;;;20.47;97.21;99983.05;124672;1099;104239;-77
2022/08/19 01:49:32;;;;;;;24.10;14.23;;;;;;;20.48;98.11;99976.80;124262;1099;104169;-77
2022/08/19 01:52:03;;;;;;;;;;;;;;;20.46;96.97;99975.95;124273;1099;103614;-77
2022/08/19 01:54:35;;;;;;;23.17;14.17;;;;;;;20.46;98.45;99981.28;124956;1099;104274;-78
2022/08/19 01:57:13;;;;;;;31.17;15.10;;;;;;;20.46;97.72;99981.28;124220;1099;104083;-77
2022/08/19 01:59:45;;;;;;;24.90;13.93;;;;;;;20.47;97.54;99988.38;124225;1099;104229;-78
2022/08/19 02:02:17;;;;;;;26.87;13.60;;;;;;;20.48;97.71;99982.12;124697;1099;104204;-78
2022/08/19 02:04:48;;;;;;;24.83;14.13;;;;;;;20.48;97.50;99987.45;124480;1098;104274;-78
2022/08/19 02:07:23;;;;;;;24.53;14.33;;;;;;;20.47;97.65;99983.05;124687;1099;104226;-78
2022/08/19 02:09:58;;;;;;;23.43;13.83;;;;;;;20.47;98.09;99979.48;124994;1099;101875;-78
2022/08/19 02:12:32;;;;;;;22.00;13.50;;;;;;;20.46;97.96;99986.61;124728;1099;110618;-76
2022/08/19 02:15:22;;;;;;;27.35;14.23;;;;;;;20.45;97.12;99983.96;125936;1098;104165;-75
2022/08/19 02:18:00;;;;;;;25.37;13.40;;;;;;;20.44;97.70;99991.09;124766;1099;102814;-75
2022/08/19 02:20:32;;;;;;;25.17;14.33;;;;;;;20.44;97.41;99996.41;124290;1102;104223;-75
2022/08/19 02:23:08;;;;;;;26.77;14.97;;;;;;;20.43;97.85;100001.77;124808;1099;104233;-75
2022/08/19 02:25:39;;;;;;;24.70;13.67;;;;;;;20.43;97.41;100001.77;124719;1099;104241;-75
2022/08/19 02:28:11;;;;;;;23.57;14.37;;;;;;;20.42;98.33;100008.85;124752;1099;104187;-75
2022/08/19 02:30:43;;;;;;;24.80;14.73;;;;;;;20.41;98.35;99993.78;124720;1099;104724;-76
2022/08/19 02:33:15;;;;;;;24.57;14.03;;;;;;;20.40;98.20;99997.34;124218;1099;102165;-75
2022/08/19 02:35:47;;;;;;;23.07;13.97;;;;;;;20.40;98.26;100005.34;124301;1099;104057;-75
2022/08/19 02:38:28;;;;;;;27.47;14.33;;;;;;;20.39;98.54;100008.02;124175;1099;104176;-76
2022/08/19 02:41:01;;;;;;;22.77;13.87;;;;;;;20.37;98.23;100010.70;124297;1098;104175;-75
2022/08/19 02:43:32;;;;;;;;;;;;;;;20.33;97.68;100000.97;124803;1098;104165;-75
2022/08/19 02:46:04;;;;;;;22.27;13.30;;;;;;;20.32;97.67;100009.89;124739;1099;104217;-75
2022/08/19 02:48:35;;;;;;;21.03;13.53;;;;;;;20.32;98.35;100009.89;124259;1102;104277;-75
2022/08/19 02:51:07;;;;;;;24.67;14.73;;;;;;;20.30;98.00;100009.00;124749;1099;104271;-75
2022/08/19 02:53:39;;;;;;;21.77;13.37;;;;;;;20.28;98.60;100003.69;124167;1102;103397;-75
2022/08/19 02:56:10;;;;;;;26.63;14.53;;;;;;;20.28;98.59;100005.48;124198;1098;104172;-76
2022/08/19 02:58:42;;;;;;;24.27;14.40;;;;;;;20.27;98.11;100019.69;124179;1099;104290;-75
2022/08/19 03:01:22;;;;;;;23.20;13.67;;;;;;;20.24;98.63;100022.39;124200;1099;102788;-75
2022/08/19 03:03:55;;;;;;;24.37;14.73;;;;;;;20.22;97.80;100030.41;124746;1099;109412;-75
2022/08/19 03:06:27;;;;;;;26.03;13.90;;;;;;;20.22;98.50;100032.20;124319;1102;102794;-75
2022/08/19 03:08:59;;;;;;;26.07;14.23;;;;;;;20.21;98.33;100043.73;124750;1098;104358;-75
2022/08/19 03:11:33;;;;;;;27.10;14.50;;;;;;;20.20;98.58;100042.87;124658;1099;104159;-75
2022/08/19 03:14:03;;;;;;;;;;;;;;;20.19;98.53;100048.21;124304;1099;102348;-75
2022/08/19 03:16:42;;;;;;;22.33;13.80;;;;;;;20.21;98.63;100041.98;124235;1099;104195;-76
2022/08/19 03:19:14;;;;;;;25.77;14.30;;;;;;;20.22;98.66;100045.52;124250;1099;104257;-75
2022/08/19 03:21:46;;;;;;;23.13;14.63;;;;;;;20.23;98.05;100039.30;124202;1098;104242;-75
2022/08/19 03:24:19;;;;;;;23.73;13.93;;;;;;;20.24;97.84;100038.38;124699;1099;104159;-75
2022/08/19 03:26:57;;;;;;;24.63;14.00;;;;;;;20.25;98.65;100038.36;124689;1099;104229;-75
2022/08/19 03:29:31;;;;;;;23.80;14.93;;;;;;;20.28;98.37;100045.45;124726;1099;104295;-75
2022/08/19 03:32:06;;;;;;;27.87;14.47;;;;;;;20.27;98.26;100047.23;124295;1099;101990;-75
2022/08/19 03:34:39;;;;;;;25.77;14.60;;;;;;;20.28;98.54;100045.45;125569;1099;118854;-75
2022/08/19 03:37:12;;;;;;;27.00;13.93;;;;;;;20.29;98.37;100044.55;124223;1099;104182;-75
2022/08/19 03:39:44;;;;;;;25.63;14.13;;;;;;;20.29;98.55;100047.22;124275;1099;104176;-75
2022/08/19 03:42:16;;;;;;;25.13;13.70;;;;;;;20.32;97.93;100046.28;124238;1099;104239;-76
2022/08/19 03:44:48;;;;;;;23.40;13.83;;;;;;;20.29;98.68;100041.89;124736;1099;104274;-75
2022/08/19 03:47:19;;;;;;;27.03;14.33;;;;;;;20.37;98.43;100045.34;124743;1099;104283;-76
2022/08/19 03:49:51;;;;;;;22.43;13.40;;;;;;;20.38;98.31;100041.78;124711;1099;104424;-75
2022/08/19 03:52:22;;;;;;;24.80;13.23;;;;;;;20.39;98.29;100040.86;124776;1099;102893;-75
2022/08/19 03:54:54;;;;;;;25.23;13.63;;;;;;;20.42;98.51;100037.30;124222;1099;111393;-79
2022/08/19 03:57:26;;;;;;;27.10;13.67;;;;;;;20.44;97.91;100038.14;124210;1099;102765;-75
2022/08/19 03:59:57;;;;;;;22.93;13.73;;;;;;;20.46;98.27;100042.56;124232;1099;104192;-75
2022/08/19 04:02:29;;;;;;;27.30;14.10;;;;;;;20.48;98.38;100050.55;124234;1099;104105;-75
2022/08/19 04:05:00;;;;;;;21.40;13.50;;;;;;;20.51;98.81;100039.84;124679;1099;102367;-77
2022/08/19 04:07:32;;;;;;;24.37;13.10;;;;;;;20.53;98.46;100045.16;124744;1099;104163;-76
2022/08/19 04:10:04;;;;;;;21.60;13.73;;;;;;;20.53;97.95;100053.16;124547;1099;104176;-75
2022/08/19 04:12:36;;;;;;;23.43;13.07;;;;;;;20.55;98.11;100046.02;124557;1099;104229;-76
2022/08/19 04:15:09;;;;;;;22.40;13.40;;;;;;;20.56;98.38;100051.32;124188;1099;104243;-76
2022/08/19 04:17:41;;;;;;;27.87;14.20;;;;;;;20.59;98.77;100055.74;124310;1099;104159;-76
2022/08/19 04:20:13;;;;;;;23.33;13.83;;;;;;;20.62;97.98;100058.38;124273;1099;104185;-77
2022/08/19 04:22:44;;;;;;;26.80;13.83;;;;;;;20.67;98.31;100061.88;124231;1099;104309;-76
2022/08/19 04:25:19;;;;;;;26.43;13.43;;;;;;;20.71;99.00;100062.72;124526;1099;103264;-76
2022/08/19 04:27:50;;;;;;;26.63;13.70;;;;;;;20.74;97.76;100060.91;124256;1099;102241;-76
2022/08/19 04:30:22;;;;;;;26.30;13.93;;;;;;;20.77;98.68;100068.88;124509;1099;104060;-76
2022/08/19 04:32:54;;;;;;;24.00;13.70;;;;;;;20.80;98.54;100074.17;124502;1099;102890;-75
2022/08/19 04:35:25;;;;;;;28.07;13.67;;;;;;;20.85;98.16;100066.11;124342;1099;102193;-76
2022/08/19 04:37:57;;;;;;;28.00;12.60;;;;;;;20.88;98.05;100073.16;124347;1099;104201;-76
2022/08/19 04:43:19;;;;;;;22.57;12.87;;;;;;;20.96;98.77;100068.63;124262;1099;104294;-76
2022/08/19 04:45:53;;;;;;;25.23;13.30;;;;;;;21.01;97.62;100067.64;124305;1102;103012;-76
2022/08/19 04:48:26;;;;;;;22.05;12.50;;;;;;;21.06;98.36;100061.37;124268;1099;104217;-77
2022/08/19 04:50:59;;;;;;;23.12;11.80;;;;;;;21.10;98.21;100065.73;124353;1099;104204;-78
2022/08/19 04:53:34;;;;;;;21.52;11.70;;;;;;;21.13;97.12;100065.69;124459;1099;102838;-77
2022/08/19 04:56:10;;;;;;;21.57;11.70;;;;;;;21.19;97.77;100060.27;124279;1099;104236;-77
2022/08/19 04:58:43;;;;;;;24.83;11.93;;;;;;;21.23;98.31;100064.66;124269;1099;104288;-76
2022/08/19 05:01:21;;;;;;;23.70;12.35;;;;;;;21.24;97.69;100063.77;124247;1100;104268;-77
2022/08/19 05:03:54;;;;;;;24.70;12.13;;;;;;;21.30;97.10;100071.69;124256;1099;104319;-77
2022/08/19 05:06:25;;;;;;;;;;;;;;;21.34;97.25;100064.50;124315;1099;107754;-77
2022/08/19 05:08:59;;;;;;;22.57;11.70;;;;;;;21.39;96.80;100059.09;124958;1099;104166;-78
2022/08/19 05:11:35;;;;;;;20.63;11.40;;;;;;;21.44;96.64;100062.56;124290;1099;104166;-78
2022/08/19 05:14:07;;;;;;;25.10;12.03;;;;;;;21.49;97.15;100064.30;124516;1099;104223;-78
2022/08/19 05:16:40;;;;;;;19.47;11.33;;;;;;;21.56;96.75;100064.20;124248;1102;118689;-78
2022/08/19 05:24:56;;;;;;;22.80;11.10;;;;;;;21.73;95.84;100072.80;124308;1099;104156;-77
2022/08/19 05:27:28;;;;;;;25.40;11.73;;;;;;;21.79;96.05;100070.03;124615;1099;103257;-78
2022/08/19 05:30:02;;;;;;;19.40;11.63;;;;;;;21.85;95.66;100061.91;124384;1099;104300;-77
2022/08/19 05:32:34;;;;;;;19.73;11.40;;;;;;;21.89;96.35;100068.97;124819;1098;104192;-77
2022/08/19 05:35:07;;;;;;;21.43;11.93;;;;;;;21.98;95.53;100067.03;125932;1098;101912;-76
2022/08/19 05:37:39;;;;;;;17.63;10.80;;;;;;;22.03;95.11;100067.81;124813;1099;104300;-77
2022/08/19 05:40:13;;;;;;;23.87;11.33;;;;;;;22.07;95.05;100066.87;124519;1099;104274;-77
2022/08/19 05:42:46;;;;;;;21.47;10.87;;;;;;;22.12;94.99;100067.66;124278;1100;102307;-77
2022/08/19 05:45:25;;;;;;;24.30;10.33;;;;;;;22.18;94.75;100069.34;124323;1099;102283;-78
2022/08/19 05:48:05;;;;;;;24.20;11.20;;;;;;;22.22;94.07;100068.35;124948;1102;104184;-78
2022/08/19 05:51:03;;;;;;;22.33;11.43;;;;;;;22.25;93.96;100070.96;125592;1098;104268;-78
2022/08/19 05:53:37;;;;;;;24.67;11.07;;;;;;;22.28;94.14;100059.34;124936;1099;102598;-78
2022/08/19 05:56:16;;;;;;;22.10;11.27;;;;;;;22.38;93.58;100074.34;125310;1099;104226;-79
2022/08/19 05:58:52;;;;;;;20.90;10.40;;;;;;;22.41;93.17;100060.91;124995;1102;104179;-80
2022/08/19 06:01:39;;;;;;;25.97;11.07;;;;;;;22.47;93.92;100060.78;125021;1099;104191;-80
2022/08/19 06:04:14;;;;;;;19.83;10.13;;;;;;;22.52;93.17;100066.05;124995;1099;102366;-79
2022/08/19 06:06:51;;;;;;;21.90;10.30;;;;;;;22.56;93.11;100055.25;125023;1099;104165;-78
2022/08/19 06:09:31;;;;;;;22.30;10.40;;;;;;;22.63;92.86;100065.83;124938;1099;104239;-79
2022/08/19 06:12:13;;;;;;;21.13;9.83;;;;;;;22.67;92.42;100059.48;125580;1099;102171;-79
2022/08/19 06:15:07;;;;;;;21.10;10.13;;;;;;;22.73;91.97;100057.55;125678;1099;102226;-80
2022/08/19 06:17:41;;;;;;;18.47;10.13;;;;;;;22.79;92.27;100057.41;125061;1099;102239;-79
2022/08/19 06:20:17;;;;;;;20.57;10.33;;;;;;;22.85;91.76;100064.44;124951;1102;101972;-79
2022/08/19 06:23:07;;;;;;;23.43;10.43;;;;;;;22.92;91.55;100062.50;125006;1099;104162;-79
2022/08/19 06:25:44;;;;;;;22.80;9.93;;;;;;;22.98;90.96;100065.03;124942;1100;104256;-79
2022/08/19 06:28:28;;;;;;;17.70;9.67;;;;;;;23.04;90.65;100053.33;126499;1098;103270;-79
2022/08/19 06:31:13;;;;;;;21.47;10.13;;;;;;;23.11;91.15;100042.48;125085;1102;104204;-79
2022/08/19 06:34:07;;;;;;;19.57;10.07;;;;;;;23.20;90.47;100036.02;125094;1100;104214;-79
2022/08/19 06:37:11;;;;;;;;;;;;;;;;;;;;;
2022/08/19 06:40:08;;;;;;;19.15;9.45;;;;;;;23.40;89.70;100050.73;124949;1099;102759;-78
2022/08/19 06:42:57;;;;;;;18.27;8.87;;;;;;;23.49;89.74;100042.47;125002;1099;102306;-79
2022/08/19 06:45:34;;;;;;;17.47;8.80;;;;;;;23.59;89.52;100048.47;125003;1100;104178;-78
2022/08/19 06:48:13;;;;;;;19.73;9.33;;;;;;;23.68;89.06;100054.49;125642;1099;102928;-79
2022/08/19 06:50:49;;;;;;;25.37;9.40;;;;;;;23.78;88.33;100064.94;125126;1102;104581;-79
2022/08/19 06:53:29;;;;;;;21.43;9.77;;;;;;;23.88;88.38;100065.64;125807;1098;104198;-79
2022/08/19 06:56:07;;;;;;;19.67;8.93;;;;;;;24.00;88.33;100066.19;126522;1098;101785;-79
2022/08/19 06:58:46;;;;;;;18.40;9.47;;;;;;;24.11;87.52;100056.99;125877;1098;102113;-79
2022/08/19 07:01:26;;;;;;;18.85;8.68;;;;;;;24.24;87.40;100055.72;125287;1099;104220;-79
2022/08/19 07:04:05;;;;;;;17.40;8.83;;;;;;;24.35;86.36;100055.42;126485;1099;104236;-79
2022/08/19 07:06:57;;;;;;;16.37;8.83;;;;;;;24.49;86.97;100063.07;125011;1102;104239;-79
2022/08/19 07:09:58;;;;;;;19.77;9.13;;;;;;;24.64;86.50;100057.30;125161;1099;102300;-80
2022/08/19 07:12:40;;;;;;;15.53;8.60;;;;;;;24.81;86.20;100054.11;125074;1099;104239;-79
2022/08/19 07:15:15;;;;;;;20.63;8.60;;;;;;;24.97;85.82;100059.88;125026;1102;102218;-78
2022/08/19 07:17:48;;;;;;;18.43;8.40;;;;;;;25.16;85.23;100062.86;125674;1098;102846;-78
2022/08/19 07:20:27;;;;;;;21.00;8.90;;;;;;;25.33;83.86;100056.99;124424;1099;102168;-78
2022/08/19 07:23:17;;;;;;;20.30;8.83;;;;;;;25.50;84.58;100061.81;125028;1099;104166;-78
2022/08/19 07:25:59;;;;;;;17.57;9.07;;;;;;;25.68;82.63;100068.40;125759;1099;102903;-78
2022/08/19 07:28:38;;;;;;;18.80;8.47;;;;;;;25.86;82.19;100074.07;124855;1098;102587;-79
2022/08/19 07:31:27;;;;;;;19.10;8.50;;;;;;;25.99;82.40;100067.35;124971;1099;119335;-78
2022/08/19 07:34:07;;;;;;;16.97;7.40;;;;;;;26.18;79.79;100071.16;124937;1099;104329;-79
2022/08/19 07:36:45;;;;;;;19.03;7.20;;;;;;;26.34;78.61;100065.23;125481;1099;104195;-78
2022/08/19 07:39:32;;;;;;;14.00;5.90;;;;;;;26.50;76.58;100069.09;124645;1099;104374;-78
2022/08/19 07:42:16;;;;;;;14.67;6.30;;;;;;;26.65;75.35;100066.78;124950;1099;102880;-78
2022/08/19 07:44:53;;;;;;;13.23;6.03;;;;;;;26.81;74.30;100051.82;125161;1102;104641;-77
2022/08/19 07:47:36;;;;;;;14.17;5.50;;;;;;;27.00;75.62;100049.28;125094;1102;103405;-77
2022/08/19 07:50:19;;;;;;;14.40;5.90;;;;;;;27.15;74.92;100050.50;124772;1099;104366;-77
2022/08/19 07:52:54;;;;;;;12.90;5.67;;;;;;;27.23;70.42;100053.75;125127;1102;104182;-78
2022/08/19 07:55:33;;;;;;;15.37;6.17;;;;;;;27.30;71.56;100051.70;125192;1102;104259;-79
2022/08/19 07:58:18;;;;;;;13.03;6.23;;;;;;;27.43;72.42;100057.49;125331;1099;104214;-78
2022/08/19 08:00:57;;;;;;;18.13;6.27;;;;;;;27.61;73.00;100047.75;125378;1102;104323;-78
2022/08/19 08:13:19;;;;;;;17.57;5.50;;;;;;;28.26;68.50;100067.43;125055;1101;119696;-78
2022/08/19 08:16:18;;;;;;;11.30;5.60;;;;;;;28.42;65.31;100069.44;124938;1102;104227;-80
2022/08/19 08:19:14;;;;;;;16.70;5.97;;;;;;;28.44;65.88;100071.14;125097;1105;102630;-78
2022/08/19 08:23:21;;;;;;;11.70;5.85;;;;;;;28.35;65.18;100081.48;125084;1102;104389;-78
2022/08/19 08:25:20;;;;;;;14.50;6.13;;;;;;;28.33;64.75;100074.31;124964;1102;101874;-78
2022/08/19 08:31:53;;;;;;;15.37;6.27;;;;;;;28.36;62.92;100069.72;124713;1104;102361;-78
2022/08/19 08:34:30;;;;;;;11.83;5.93;;;;;;;28.46;63.43;100074.63;124685;1105;104395;-79
2022/08/19 08:37:09;;;;;;;10.37;5.67;;;;;;;28.62;64.24;100076.67;124770;1105;102076;-79
2022/08/19 08:39:43;;;;;;;12.47;5.63;;;;;;;28.72;60.65;100080.70;124901;1105;104174;-80
2022/08/19 08:42:46;;;;;;;15.80;5.23;;;;;;;28.70;60.92;100077.18;124918;1105;104244;-77
2022/08/19 08:45:49;;;;;;;;;;;;;;;;;;;;;
2022/08/19 08:48:44;;;;;;;10.70;5.17;;;;;;;28.63;57.24;100065.80;124845;1105;104285;-79
2022/08/19 08:51:59;;;;;;;12.00;4.80;;;;;;;28.72;58.23;100063.61;124468;1105;102318;-80
2022/08/19 08:54:42;;;;;;;14.53;5.23;;;;;;;28.76;59.31;100054.44;124777;1103;104201;-80
2022/08/19 08:57:33;;;;;;;11.63;5.40;;;;;;;28.88;59.31;100053.86;124769;1105;103129;-79
2022/08/19 09:00:18;;;;;;;14.50;5.47;;;;;;;28.93;57.62;100045.53;124758;1105;104319;-80
2022/08/19 09:02:52;;;;;;;18.67;5.77;;;;;;;28.99;58.24;100054.21;124872;1102;102212;-79
2022/08/19 09:05:49;;;;;;;18.57;5.57;;;;;;;29.07;58.76;100053.84;124781;1105;102191;-79
2022/08/19 09:08:34;;;;;;;16.67;5.67;;;;;;;28.96;55.73;100062.46;124802;1105;102887;-79
2022/08/19 09:11:11;;;;;;;14.03;6.50;;;;;;;28.91;56.60;100055.55;124817;1105;104412;-79
2022/08/19 09:13:54;;;;;;;13.27;5.40;;;;;;;28.86;56.25;100051.23;124933;1102;104657;-79
2022/08/19 09:16:28;;;;;;;17.60;5.47;;;;;;;28.99;56.97;100065.02;124951;1102;104320;-79
2022/08/19 09:19:07;;;;;;;12.83;5.50;;;;;;;29.16;56.81;100063.34;125032;1102;104310;-80
2022/08/19 09:21:41;;;;;;;12.33;5.40;;;;;;;29.27;56.57;100066.42;125031;1099;104265;-80
2022/08/19 09:27:12;;;;;;;12.43;4.83;;;;;;;29.31;54.80;100056.33;125014;1102;104240;-80
2022/08/19 09:29:50;;;;;;;14.37;5.10;;;;;;;29.34;54.96;100054.37;126081;1101;101777;-80
2022/08/19 09:32:47;;;;;;;11.17;4.67;;;;;;;29.36;53.48;100062.40;124982;1099;104268;-79
2022/08/19 09:35:27;;;;;;;12.40;5.30;;;;;;;29.43;54.19;100061.13;125327;1099;102035;-79
2022/08/19 09:38:06;;;;;;;13.07;5.37;;;;;;;29.48;53.39;100058.20;125670;1099;102191;-81
2022/08/19 09:40:44;;;;;;;13.60;5.30;;;;;;;29.55;52.87;100055.11;125594;1099;102678;-81
2022/08/19 09:43:19;;;;;;;13.60;5.40;;;;;;;29.58;52.92;100060.36;125143;1099;104162;-80
2022/08/19 09:46:02;;;;;;;12.80;5.90;;;;;;;29.50;52.07;100062.58;125054;1099;104309;-80
2022/08/19 09:48:48;;;;;;;11.80;5.03;;;;;;;29.53;52.15;100066.94;125037;1099;101896;-79
2022/08/19 09:51:46;;;;;;;;;;;;;;;;;;;;;
2022/08/19 09:54:35;;;;;;;15.43;5.67;;;;;;;29.64;52.94;100052.88;124976;1099;102531;-79
2022/08/19 09:57:09;;;;;;;18.82;5.60;;;;;;;29.68;52.79;100052.66;124374;1102;103276;-78
2022/08/19 09:59:44;;;;;;;10.03;5.23;;;;;;;29.72;52.26;100062.37;125127;1099;102289;-78
2022/08/19 10:02:24;;;;;;;14.20;5.67;;;;;;;29.62;52.25;100049.39;125642;1099;104245;-79
2022/08/19 10:08:05;;;;;;;13.83;5.73;;;;;;;29.64;52.33;100053.78;124941;1099;104166;-78
2022/08/19 10:10:44;;;;;;;16.87;5.70;;;;;;;29.75;52.18;100067.62;124978;1099;102197;-79
2022/08/19 10:13:23;;;;;;;17.40;6.20;;;;;;;29.78;51.52;100060.30;125004;1099;104064;-78
2022/08/19 10:16:04;;;;;;;8.93;5.43;;;;;;;29.83;51.28;100056.45;125247;1099;102794;-79
2022/08/19 10:18:38;;;;;;;10.00;5.33;;;;;;;29.90;51.39;100051.58;124330;1099;104214;-79
2022/08/19 10:21:13;;;;;;;15.90;6.23;;;;;;;29.96;51.34;100055.81;125546;1099;104265;-79
2022/08/19 10:23:52;;;;;;;17.47;6.00;;;;;;;29.92;50.54;100063.22;125627;1099;104501;-79
2022/08/19 10:26:27;;;;;;;12.77;6.20;;;;;;;29.87;50.87;100063.45;124670;1099;104153;-79
2022/08/19 10:29:06;;;;;;;12.07;5.73;;;;;;;29.97;50.64;100061.14;125129;1099;102754;-78
2022/08/19 10:31:47;;;;;;;13.13;6.03;;;;;;;30.06;50.79;100060.66;125418;1099;102819;-77
2022/08/19 10:34:19;;;;;;;14.37;6.07;;;;;;;30.03;50.28;100070.75;124748;1099;104229;-78
2022/08/19 10:36:52;;;;;;;14.37;5.90;;;;;;;30.07;50.02;100061.52;124841;1099;104172;-78
2022/08/19 10:39:24;;;;;;;11.25;5.83;;;;;;;30.19;50.14;100060.88;124755;1099;102737;-78
2022/08/19 10:42:00;;;;;;;10.53;5.17;;;;;;;30.27;49.68;100065.89;124391;1099;104211;-79
2022/08/19 10:44:32;;;;;;;14.17;5.60;;;;;;;30.37;49.80;100071.67;125065;1099;104566;-79
2022/08/19 10:47:05;;;;;;;15.83;6.30;;;;;;;30.42;49.29;100061.53;124749;1099;104243;-79
2022/08/19 10:52:33;;;;;;;9.83;5.43;;;;;;;30.53;48.55;100077.20;125053;1102;104236;-79
2022/08/19 10:52:35;;;;;;;8.03;4.62;;;;;;;30.60;48.31;100079.45;125125;1101;102140;-79
2022/08/19 10:58:02;;;;;;;12.93;5.20;;;;;;;30.53;48.52;100082.61;124494;1102;105483;-79
2022/08/19 11:00:38;;;;;;;15.23;5.80;;;;;;;30.42;47.95;100085.89;124402;1099;102365;-79
2022/08/19 11:03:13;;;;;;;13.67;5.83;;;;;;;30.50;47.96;100070.11;124420;1097;104405;-79
2022/08/19 11:05:48;;;;;;;16.20;5.37;;;;;;;30.56;47.95;100069.77;125006;1099;104325;-80
2022/08/19 11:08:41;;;;;;;9.17;4.63;;;;;;;30.68;47.48;100079.04;125046;1099;104264;-81
2022/08/19 11:11:21;;;;;;;13.33;5.83;;;;;;;30.81;47.85;100068.42;125104;1102;102216;-80
2022/08/19 11:14:02;;;;;;;14.77;5.57;;;;;;;30.69;47.65;100069.97;125931;1099;104214;-79
2022/08/19 11:16:53;;;;;;;13.40;5.40;;;;;;;30.65;47.74;100066.56;125727;1098;102348;-80
2022/08/19 11:20:11;;;;;;;12.90;4.90;;;;;;;30.71;47.06;100068.03;125188;1099;110936;-81
2022/08/19 11:22:53;;;;;;;14.33;4.77;;;;;;;30.70;46.39;100068.13;125815;1099;104165;-80
2022/08/19 11:25:43;;;;;;;13.60;5.00;;;;;;;30.74;46.44;100062.45;125770;1099;104281;-79
2022/08/19 11:28:32;;;;;;;14.65;5.10;;;;;;;30.87;46.74;100050.94;125094;1099;104341;-80
2022/08/19 11:31:05;;;;;;;17.17;5.23;;;;;;;31.04;46.74;100053.63;125540;1099;104172;-80
2022/08/19 11:33:57;;;;;;;;;;;;;;;;;;;;;
2022/08/19 11:36:49;;;;;;;10.50;4.93;;;;;;;31.14;46.98;100044.00;125734;1099;104296;-80
2022/08/19 11:39:45;;;;;;;14.90;5.07;;;;;;;31.05;46.51;100049.08;125653;1099;104223;-80
2022/08/19 11:45:25;;;;;;;13.07;5.20;;;;;;;31.09;45.72;100046.11;125069;1102;101983;-78
2022/08/19 11:48:03;;;;;;;10.83;4.47;;;;;;;30.96;45.64;100042.30;125043;1102;104169;-79
2022/08/19 11:50:43;;;;;;;12.53;4.70;;;;;;;30.78;45.45;100044.22;124825;1099;102416;-78
2022/08/19 11:53:21;;;;;;;13.60;5.43;;;;;;;30.82;46.14;100037.66;125690;1099;104232;-78
2022/08/19 11:55:57;;;;;;;13.83;4.97;;;;;;;30.94;46.53;100036.10;125622;1099;104339;-79
2022/08/19 11:58:37;;;;;;;13.93;5.30;;;;;;;31.03;46.58;100035.61;125582;1099;104274;-78
2022/08/19 12:01:14;;;;;;;14.77;5.10;;;;;;;31.18;45.65;100045.58;125173;1099;104165;-79
2022/08/19 12:03:48;;;;;;;15.13;5.23;;;;;;;31.24;45.67;100032.63;125624;1099;102823;-78
2022/08/19 12:06:23;;;;;;;16.63;5.77;;;;;;;31.32;45.95;100024.91;125593;1099;104176;-77
2022/08/19 12:09:03;;;;;;;16.80;5.13;;;;;;;31.37;46.19;100028.25;124343;1099;104255;-77
2022/08/19 12:11:40;;;;;;;15.43;5.20;;;;;;;31.23;45.26;100020.92;124845;1099;102784;-77
2022/08/19 12:14:16;;;;;;;13.40;5.77;;;;;;;31.27;45.36;100018.90;124795;1099;102843;-78
2022/08/19 12:16:49;;;;;;;12.97;5.10;;;;;;;31.33;45.57;100016.70;124734;1099;104328;-77
2022/08/19 12:19:32;;;;;;;15.13;5.70;;;;;;;31.40;45.81;100009.09;125608;1098;104312;-79
2022/08/19 12:22:12;;;;;;;11.87;5.40;;;;;;;31.46;45.86;100000.61;124987;1099;109364;-77
2022/08/19 12:24:53;;;;;;;19.30;5.87;;;;;;;31.43;45.22;100010.73;125625;1099;102839;-77
2022/08/19 12:27:59;;;;;;;14.07;5.40;;;;;;;31.26;44.89;100009.01;126011;1098;101865;-77